createdAt,value
2022-09-03T00:01:39.189Z,13.50
2022-09-03T00:04:20.908Z,13.40
2022-09-03T00:07:03.671Z,13.30
2022-09-03T00:09:38.716Z,13.20
2022-09-03T00:12:12.656Z,13.10
2022-09-03T00:14:46.067Z,13.00
2022-09-03T00:17:18.956Z,13.00
2022-09-03T00:19:55.469Z,13.00
2022-09-03T00:22:30.916Z,12.90
2022-09-03T00:25:01.806Z,12.80
2022-09-03T00:27:34.146Z,12.80
2022-09-03T00:30:04.857Z,12.70
2022-09-03T00:32:41.517Z,12.70
2022-09-03T00:35:18.357Z,12.60
2022-09-03T00:37:49.284Z,12.50
2022-09-03T00:40:45.203Z,12.40
2022-09-03T00:43:28.809Z,12.30
2022-09-03T00:46:07.540Z,12.20
2022-09-03T00:48:50.449Z,12.10
2022-09-03T00:51:29.540Z,12.10
2022-09-03T00:54:08.112Z,12.10
2022-09-03T00:56:44.818Z,12.10
2022-09-03T00:59:25.301Z,12.00
2022-09-03T01:02:07.399Z,11.90
2022-09-03T01:04:47.975Z,11.80
2022-09-03T01:07:25.394Z,11.70
2022-09-03T01:10:10.265Z,11.70
2022-09-03T01:12:48.849Z,11.70
2022-09-03T01:15:28.648Z,11.80
2022-09-03T01:18:14.440Z,11.80
2022-09-03T01:20:57.293Z,11.80
2022-09-03T01:23:54.975Z,11.70
2022-09-03T01:26:40.553Z,11.70
2022-09-03T01:29:20.511Z,11.60
2022-09-03T01:32:01.108Z,11.60
2022-09-03T01:34:45.207Z,11.50
2022-09-03T01:37:20.880Z,11.50
2022-09-03T01:40:02.956Z,11.50
2022-09-03T01:42:46.852Z,11.50
2022-09-03T01:45:50.221Z,11.40
2022-09-03T01:48:37.845Z,11.30
2022-09-03T01:51:18.173Z,11.30
2022-09-03T01:54:21.569Z,11.30
2022-09-03T01:57:31.249Z,11.20
2022-09-03T02:00:06.077Z,11.20
2022-09-03T02:02:43.680Z,11.20
2022-09-03T02:05:15.189Z,11.10
2022-09-03T02:07:47.167Z,11.10
2022-09-03T02:10:19.415Z,11.10
2022-09-03T02:12:53.715Z,11.10
2022-09-03T02:15:26.310Z,11.00
2022-09-03T02:18:00.732Z,11.00
2022-09-03T02:20:30.819Z,11.00
2022-09-03T02:23:00.599Z,11.00
2022-09-03T02:25:34.907Z,11.00
2022-09-03T02:28:06.028Z,10.90
2022-09-03T02:30:45.216Z,10.90
2022-09-03T02:33:16.474Z,10.80
2022-09-03T02:35:45.746Z,10.80
2022-09-03T02:38:17.161Z,10.90
2022-09-03T02:40:46.334Z,10.90
2022-09-03T02:43:20.286Z,10.90
2022-09-03T02:45:58.589Z,10.80
2022-09-03T02:48:29.245Z,10.80
2022-09-03T02:50:59.067Z,10.80
2022-09-03T02:53:29.266Z,10.80
2022-09-03T02:56:01.367Z,10.80
2022-09-03T02:58:32.515Z,10.80
2022-09-03T03:01:01.795Z,10.70
2022-09-03T03:03:32.750Z,10.70
2022-09-03T03:06:04.868Z,10.60
2022-09-03T03:08:35.510Z,10.50
2022-09-03T03:11:05.364Z,10.60
2022-09-03T03:13:35.173Z,10.50
2022-09-03T03:16:08.621Z,10.50
2022-09-03T03:18:39.636Z,10.50
2022-09-03T03:21:10.756Z,10.50
2022-09-03T03:23:41.318Z,10.40
2022-09-03T03:26:12.823Z,10.40
2022-09-03T03:28:42.655Z,10.50
2022-09-03T03:31:13.442Z,10.40
2022-09-03T03:33:44.813Z,10.40
2022-09-03T03:36:16.072Z,10.40
2022-09-03T03:38:46.205Z,10.30
2022-09-03T03:41:18.619Z,10.30
2022-09-03T03:43:48.343Z,10.30
2022-09-03T03:46:18.036Z,10.30
2022-09-03T03:48:49.905Z,10.30
2022-09-03T03:51:19.885Z,10.20
2022-09-03T03:53:49.526Z,10.20
2022-09-03T03:56:19.082Z,10.20
2022-09-03T03:58:48.864Z,10.10
2022-09-03T04:01:20.034Z,10.10
2022-09-03T04:03:51.298Z,10.10
2022-09-03T04:06:22.498Z,10.20
2022-09-03T04:08:52.857Z,10.30
2022-09-03T04:11:23.817Z,10.20
2022-09-03T04:13:54.257Z,10.10
2022-09-03T04:16:25.551Z,10.10
2022-09-03T04:18:57.394Z,10.20
2022-09-03T04:21:28.711Z,10.30
2022-09-03T04:23:59.058Z,10.30
2022-09-03T04:26:31.784Z,10.20
2022-09-03T04:29:02.605Z,10.20
2022-09-03T04:31:32.322Z,10.20
2022-09-03T04:34:03.502Z,10.20
2022-09-03T04:36:33.484Z,10.30
2022-09-03T04:39:03.672Z,10.30
2022-09-03T04:41:34.039Z,10.30
2022-09-03T04:44:03.797Z,10.30
2022-09-03T04:46:34.336Z,10.30
2022-09-03T04:49:05.596Z,10.50
2022-09-03T04:51:35.228Z,11.40
2022-09-03T04:54:05.147Z,12.70
2022-09-03T04:56:36.356Z,14.00
2022-09-03T04:59:07.863Z,15.10
2022-09-03T05:01:39.774Z,16.20
2022-09-03T05:04:11.235Z,16.90
2022-09-03T05:06:40.636Z,17.40
2022-09-03T05:09:10.035Z,18.10
2022-09-03T05:11:39.436Z,19.20
2022-09-03T05:14:12.135Z,19.80
2022-09-03T05:16:42.437Z,20.30
2022-09-03T05:19:24.052Z,21.10
2022-09-03T05:21:53.380Z,21.50
2022-09-03T05:24:22.741Z,21.50
2022-09-03T05:26:52.244Z,21.90
2022-09-03T05:29:22.383Z,22.10
2022-09-03T05:31:52.064Z,22.50
2022-09-03T05:34:23.575Z,22.20
2022-09-03T05:36:53.491Z,21.80
2022-09-03T05:39:23.156Z,22.10
2022-09-03T05:41:53.742Z,22.80
2022-09-03T05:44:23.952Z,24.40
2022-09-03T05:46:53.806Z,25.70
2022-09-03T05:49:24.806Z,24.80
2022-09-03T05:51:54.407Z,24.70
2022-09-03T05:54:24.128Z,25.20
2022-09-03T05:56:54.007Z,25.90
2022-09-03T05:59:23.648Z,26.10
2022-09-03T06:01:58.030Z,26.00
2022-09-03T06:04:31.078Z,26.20
2022-09-03T06:07:03.335Z,26.90
2022-09-03T06:09:33.733Z,27.10
2022-09-03T06:12:04.676Z,27.60
2022-09-03T06:14:34.962Z,28.20
2022-09-03T06:17:04.799Z,28.70
2022-09-03T06:19:36.644Z,27.70
2022-09-03T06:22:06.432Z,27.40
2022-09-03T06:24:36.032Z,26.50
2022-09-03T06:27:05.673Z,26.80
2022-09-03T06:29:35.993Z,26.80
2022-09-03T06:32:06.451Z,26.40
2022-09-03T06:34:38.181Z,26.20
2022-09-03T06:37:08.228Z,26.90
2022-09-03T06:39:38.679Z,26.50
2022-09-03T06:42:09.750Z,25.80
2022-09-03T06:44:40.557Z,26.00
2022-09-03T06:47:10.644Z,25.40
2022-09-03T06:49:42.397Z,25.30
2022-09-03T06:52:12.397Z,25.70
2022-09-03T06:54:42.631Z,25.90
2022-09-03T06:57:12.478Z,26.20
2022-09-03T06:59:44.201Z,26.70
2022-09-03T07:02:13.927Z,25.70
2022-09-03T07:04:44.957Z,24.40
2022-09-03T07:07:17.779Z,24.20
2022-09-03T07:09:48.437Z,24.30
2022-09-03T07:12:19.584Z,24.90
2022-09-03T07:14:51.224Z,24.70
2022-09-03T07:17:20.637Z,24.30
2022-09-03T07:19:51.538Z,24.80
2022-09-03T07:22:20.878Z,25.10
2022-09-03T07:24:52.438Z,24.80
2022-09-03T07:27:21.797Z,24.50
2022-09-03T07:29:51.198Z,24.20
2022-09-03T07:32:20.606Z,24.10
2022-09-03T07:34:53.207Z,23.80
2022-09-03T07:37:22.781Z,23.90
2022-09-03T07:39:53.487Z,24.10
2022-09-03T07:42:23.369Z,23.90
2022-09-03T07:44:53.249Z,23.80
2022-09-03T09:41:29.710Z,23.90
2022-09-03T09:44:03.700Z,23.90
2022-09-03T09:46:39.612Z,23.50
2022-09-03T09:49:31.308Z,23.40
2022-09-03T09:52:06.793Z,23.30
2022-09-03T09:54:36.470Z,23.20
2022-09-03T09:57:10.100Z,23.20
2022-09-03T09:59:39.330Z,23.40
2022-09-03T10:02:22.199Z,23.20
2022-09-03T10:04:52.382Z,23.10
2022-09-03T10:07:26.707Z,23.00
2022-09-03T10:10:04.729Z,23.00
2022-09-03T10:12:42.333Z,23.10
2022-09-03T10:15:21.189Z,23.40
2022-09-03T10:17:59.308Z,23.30
2022-09-03T10:20:37.549Z,23.60
2022-09-03T10:23:18.266Z,23.90
2022-09-03T10:26:04.735Z,23.50
2022-09-03T10:28:41.574Z,23.30
2022-09-03T10:31:29.807Z,23.00
2022-09-03T10:34:04.907Z,23.10
2022-09-03T10:36:41.597Z,22.80
2022-09-03T10:39:21.118Z,22.70
2022-09-03T10:42:07.077Z,22.80
2022-09-03T10:44:58.588Z,22.80
2022-09-03T10:47:42.309Z,22.90
2022-09-03T10:50:17.747Z,23.10
2022-09-03T10:53:05.733Z,23.20
2022-09-03T10:55:46.569Z,23.40
2022-09-03T10:58:31.661Z,23.20
2022-09-03T11:01:13.171Z,23.30
2022-09-03T11:03:49.807Z,23.10
2022-09-03T11:06:25.307Z,22.80
2022-09-03T11:09:05.831Z,22.70
2022-09-03T11:11:44.263Z,23.00
2022-09-03T11:14:19.575Z,23.00
2022-09-03T11:16:56.046Z,22.90
2022-09-03T11:19:35.823Z,23.00
2022-09-03T11:22:08.309Z,23.10
2022-09-03T11:24:41.987Z,23.20
2022-09-03T11:27:23.773Z,23.00
2022-09-03T11:30:00.865Z,22.70
2022-09-03T11:32:47.238Z,22.70
2022-09-03T11:35:28.216Z,22.70
2022-09-03T11:38:04.170Z,22.80
2022-09-03T11:40:38.453Z,23.00
2022-09-03T11:43:11.840Z,23.10
2022-09-03T11:45:42.088Z,22.90
2022-09-03T11:48:36.290Z,22.70
2022-09-03T11:51:06.510Z,22.80
2022-09-03T11:53:38.021Z,22.80
2022-09-03T11:56:21.377Z,22.80
2022-09-03T11:59:02.773Z,22.80
2022-09-03T12:01:33.416Z,22.80
2022-09-03T12:04:07.987Z,22.70
2022-09-03T12:07:01.838Z,22.80
2022-09-03T12:09:56.677Z,22.90
2022-09-03T12:12:55.207Z,23.00
2022-09-03T12:15:43.401Z,22.90
2022-09-03T12:18:23.159Z,23.00
2022-09-03T12:21:05.764Z,23.00
2022-09-03T12:23:36.936Z,23.10
2022-09-03T12:26:09.657Z,22.90
2022-09-03T12:28:44.812Z,22.70
2022-09-03T12:31:25.832Z,23.00
2022-09-03T12:33:59.721Z,23.10
2022-09-03T12:36:39.533Z,22.90
2022-09-03T12:39:13.151Z,23.10
2022-09-03T12:42:01.721Z,23.00
2022-09-03T12:44:33.716Z,23.00
2022-09-03T12:49:59.427Z,22.70
2022-09-03T12:52:35.043Z,22.60
2022-09-03T12:55:10.253Z,22.70
2022-09-03T12:57:45.801Z,22.80
2022-09-03T13:00:18.596Z,23.00
2022-09-03T13:02:53.622Z,23.10
2022-09-03T13:05:27.442Z,23.10
2022-09-03T13:08:00.825Z,23.10
2022-09-03T13:10:31.901Z,23.10
2022-09-03T13:13:03.351Z,23.10
2022-09-03T13:15:33.155Z,23.10
2022-09-03T13:18:22.044Z,23.10
2022-09-03T13:21:05.060Z,23.00
2022-09-03T13:23:56.846Z,23.00
2022-09-03T13:26:37.294Z,22.90
2022-09-03T13:29:30.315Z,22.90
2022-09-03T13:32:06.376Z,22.80
2022-09-03T13:34:39.524Z,22.70
2022-09-03T13:37:27.972Z,22.70
2022-09-03T13:40:01.555Z,22.80
2022-09-03T13:42:38.210Z,22.80
2022-09-03T13:45:22.894Z,22.80
2022-09-03T13:48:17.381Z,22.70
2022-09-03T13:50:59.093Z,22.80
2022-09-03T13:53:41.529Z,22.90
2022-09-03T13:56:25.912Z,23.00
2022-09-03T13:59:03.539Z,23.00
2022-09-03T14:01:47.374Z,23.00
2022-09-03T14:04:24.449Z,23.00
2022-09-03T14:07:03.262Z,23.00
2022-09-03T14:09:42.081Z,23.00
2022-09-03T14:12:19.866Z,23.00
2022-09-03T14:14:56.709Z,22.80
2022-09-03T14:17:37.763Z,22.80
2022-09-03T14:20:13.891Z,22.90
2022-09-03T14:22:51.300Z,22.80
2022-09-03T14:25:22.331Z,22.70
2022-09-03T14:27:53.595Z,22.50
2022-09-03T14:30:34.844Z,22.60
2022-09-03T14:33:14.020Z,22.70
2022-09-03T14:35:55.583Z,22.70
2022-09-03T14:38:57.160Z,22.50
2022-09-03T14:41:46.004Z,22.50
2022-09-03T14:44:33.719Z,22.60
2022-09-03T14:47:19.975Z,22.70
2022-09-03T14:50:13.631Z,22.70
2022-09-03T14:53:11.795Z,22.80
2022-09-03T14:56:14.637Z,22.70
2022-09-03T14:59:26.347Z,22.80
2022-09-03T15:02:13.457Z,22.90
2022-09-03T15:04:57.831Z,22.90
2022-09-03T15:07:34.365Z,22.90
2022-09-03T15:10:13.958Z,22.70
2022-09-03T15:12:48.137Z,22.80
2022-09-03T15:15:23.277Z,22.80
2022-09-03T15:18:12.005Z,22.80
2022-09-03T15:20:51.129Z,22.90
2022-09-03T15:23:40.050Z,23.00
2022-09-03T15:26:41.243Z,23.00
2022-09-03T15:29:27.510Z,23.10
2022-09-03T15:32:08.342Z,23.00
2022-09-03T15:34:58.562Z,22.90
2022-09-03T15:37:34.014Z,22.90
2022-09-03T15:40:08.702Z,23.00
2022-09-03T15:42:38.833Z,22.90
2022-09-03T15:45:17.805Z,22.80
2022-09-03T15:47:56.592Z,22.80
2022-09-03T15:50:36.794Z,22.80
2022-09-03T15:53:16.995Z,22.70
2022-09-03T15:55:48.342Z,22.70
2022-09-03T15:58:28.191Z,22.70
2022-09-03T16:01:03.445Z,22.70
2022-09-03T16:03:46.643Z,22.70
2022-09-03T16:06:38.711Z,22.50
2022-09-03T16:09:19.506Z,22.50
2022-09-03T16:11:57.976Z,22.30
2022-09-03T16:14:34.603Z,22.10
2022-09-03T16:17:10.649Z,22.10
2022-09-03T16:19:48.312Z,22.00
2022-09-03T16:22:27.748Z,22.00
2022-09-03T16:25:02.836Z,22.00
2022-09-03T16:27:36.829Z,21.80
2022-09-03T16:30:13.188Z,21.80
2022-09-03T16:32:59.348Z,21.90
2022-09-03T16:35:43.336Z,21.80
2022-09-03T16:38:31.546Z,21.80
2022-09-03T16:41:10.698Z,21.60
2022-09-03T16:43:46.461Z,21.40
2022-09-03T16:46:26.562Z,21.40
2022-09-03T16:49:12.049Z,21.30
2022-09-03T16:51:49.408Z,21.20
2022-09-03T16:54:38.589Z,21.20
2022-09-03T16:57:19.989Z,21.20
2022-09-03T17:00:05.331Z,21.10
2022-09-03T17:03:26.137Z,21.00
2022-09-03T17:06:29.305Z,21.10
2022-09-03T17:09:06.811Z,21.10
2022-09-03T17:11:46.100Z,21.00
2022-09-03T17:14:45.642Z,20.80
2022-09-03T17:17:26.537Z,20.70
2022-09-03T17:20:01.426Z,20.70
2022-09-03T17:22:44.467Z,20.60
2022-09-03T17:25:26.015Z,20.50
2022-09-03T17:28:09.596Z,20.50
2022-09-03T17:30:45.387Z,20.40
2022-09-03T17:33:44.955Z,20.40
2022-09-03T17:36:18.414Z,20.30
2022-09-03T17:39:17.058Z,20.30
2022-09-03T17:41:54.775Z,20.20
2022-09-03T17:44:45.354Z,20.10
2022-09-03T17:47:50.442Z,20.00
2022-09-03T17:50:25.190Z,19.90
2022-09-03T17:52:58.542Z,19.90
2022-09-03T17:55:37.242Z,19.80
2022-09-03T17:58:18.517Z,19.80
2022-09-03T18:00:56.592Z,19.80
2022-09-03T18:03:30.419Z,19.70
2022-09-03T18:06:04.846Z,19.70
2022-09-03T18:08:44.413Z,19.70
2022-09-03T18:11:20.179Z,19.60
2022-09-03T18:14:02.568Z,19.50
2022-09-03T18:16:35.823Z,19.50
2022-09-03T18:19:18.568Z,19.40
2022-09-03T18:22:08.497Z,19.40
2022-09-03T18:25:03.929Z,19.40
2022-09-03T18:27:57.995Z,19.30
2022-09-03T18:30:46.969Z,19.30
2022-09-03T18:33:36.860Z,19.20
2022-09-03T18:36:24.656Z,19.20
2022-09-03T18:39:11.752Z,19.10
2022-09-03T18:42:15.269Z,19.00
2022-09-03T18:45:22.171Z,18.90
2022-09-03T18:48:26.705Z,18.90
2022-09-03T18:51:22.671Z,18.80
2022-09-03T18:54:20.215Z,18.80
2022-09-03T18:57:08.724Z,18.60
2022-09-03T19:00:16.701Z,18.60
2022-09-03T19:03:25.132Z,18.60
2022-09-03T19:06:24.701Z,18.60
2022-09-03T19:09:20.671Z,18.40
2022-09-03T19:12:21.215Z,18.30
2022-09-03T19:15:15.412Z,18.20
2022-09-03T19:18:24.796Z,18.20
2022-09-03T19:21:21.825Z,18.00
2022-09-03T19:24:09.286Z,17.70
2022-09-03T19:27:18.081Z,17.70
2022-09-03T19:30:23.476Z,17.70
2022-09-03T19:33:22.200Z,17.60
2022-09-03T19:36:16.602Z,17.60
2022-09-03T19:39:21.880Z,17.40
2022-09-03T19:42:15.683Z,17.20
2022-09-03T19:45:17.082Z,17.20
2022-09-03T19:48:13.069Z,17.00
2022-09-03T19:51:04.432Z,16.90
2022-09-03T19:53:53.433Z,16.90
2022-09-03T19:56:46.566Z,16.90
2022-09-03T19:59:39.200Z,16.90
2022-09-03T20:02:25.825Z,16.90
2022-09-03T20:05:17.942Z,16.90
2022-09-03T20:08:06.364Z,16.90
2022-09-03T20:10:37.371Z,16.90
2022-09-03T20:13:13.730Z,16.90
2022-09-03T20:15:58.042Z,16.90
2022-09-03T20:18:38.952Z,16.90
2022-09-03T20:21:18.059Z,17.00
2022-09-03T20:23:56.293Z,17.00
2022-09-03T20:26:42.876Z,17.00
2022-09-03T20:29:42.440Z,16.90
2022-09-03T20:32:18.326Z,16.90
2022-09-03T20:34:59.171Z,16.80
2022-09-03T20:37:38.969Z,16.60
2022-09-03T20:40:28.638Z,16.40
2022-09-03T20:43:20.924Z,16.20
2022-09-03T20:46:09.396Z,16.10
2022-09-03T20:48:47.329Z,16.10
2022-09-03T20:51:22.932Z,16.10
2022-09-03T20:54:15.367Z,16.10
2022-09-03T20:57:02.910Z,16.10
2022-09-03T20:59:44.967Z,16.20
2022-09-03T21:02:26.255Z,16.20
2022-09-03T21:05:06.719Z,16.20
2022-09-03T21:07:49.724Z,16.20
2022-09-03T21:10:26.385Z,16.10
2022-09-03T21:13:03.713Z,16.10
2022-09-03T21:15:45.824Z,16.10
2022-09-03T21:18:25.649Z,16.10
2022-09-03T21:21:09.938Z,16.10
2022-09-03T21:23:43.686Z,16.00
2022-09-03T21:26:17.535Z,16.00
2022-09-03T21:29:00.656Z,15.90
2022-09-03T21:31:38.705Z,15.80
2022-09-03T21:34:18.628Z,15.60
2022-09-03T21:36:50.588Z,15.50
2022-09-03T21:39:25.957Z,15.60
2022-09-03T21:41:59.458Z,15.50
2022-09-03T21:44:48.742Z,15.50
2022-09-03T21:47:21.613Z,15.40
2022-09-03T21:50:02.479Z,15.50
2022-09-03T21:52:41.207Z,15.50
2022-09-03T21:55:22.032Z,15.50
2022-09-03T21:58:03.177Z,15.60
2022-09-03T22:00:33.326Z,15.60
2022-09-03T22:03:03.567Z,15.60
2022-09-03T22:05:44.467Z,15.70
2022-09-03T22:08:22.553Z,15.50
2022-09-03T22:11:04.890Z,15.50
2022-09-03T22:13:43.486Z,15.40
2022-09-03T22:16:23.643Z,15.30
2022-09-03T22:18:53.411Z,15.20
2022-09-03T22:21:33.689Z,15.10
2022-09-03T22:24:19.452Z,14.90
2022-09-03T22:26:56.171Z,14.50
2022-09-03T22:29:37.318Z,14.20
2022-09-03T22:32:18.311Z,14.10
2022-09-03T22:35:14.287Z,14.00
2022-09-03T22:37:55.897Z,14.00
2022-09-03T22:40:30.226Z,14.10
2022-09-03T22:43:20.787Z,14.10
2022-09-03T22:46:08.016Z,14.00
2022-09-03T22:48:59.453Z,14.00
2022-09-03T22:51:32.134Z,13.90
2022-09-03T22:54:17.906Z,13.90
2022-09-03T22:56:47.832Z,14.00
2022-09-03T22:59:25.395Z,13.90
2022-09-03T23:02:04.595Z,13.80
2022-09-03T23:04:46.676Z,13.80
2022-09-03T23:07:24.241Z,13.80
2022-09-03T23:09:59.313Z,13.70
2022-09-03T23:12:36.821Z,13.80
2022-09-03T23:15:09.385Z,13.80
2022-09-03T23:17:44.094Z,13.90
2022-09-03T23:20:18.129Z,14.00
2022-09-03T23:22:54.738Z,13.90
2022-09-03T23:25:31.511Z,13.80
2022-09-03T23:28:04.390Z,13.70
2022-09-03T23:30:33.710Z,13.70
2022-09-03T23:33:03.117Z,13.70
2022-09-03T23:35:37.306Z,13.60
2022-09-03T23:38:16.898Z,13.70
2022-09-03T23:40:51.704Z,13.50
2022-09-03T23:43:48.737Z,13.50
2022-09-03T23:46:22.305Z,13.60
2022-09-03T23:49:33.759Z,13.50
2022-09-03T23:52:22.214Z,13.60
2022-09-03T23:55:05.496Z,13.40
2022-09-03T23:57:40.143Z,13.30
